Rechercher aéroport 
image banner adimage banner ad
image banner ad

SBBG - Comandante Gustavo Kraemer

Situé à Bage, Brazil

ICAO - SBBG, IATA - BGX

Données fournies par Airmate  

Information générale

Coordonnées: S31°23'27" W54°6'35"
Élévation : 610 feet MSL.
Variation magnétique : -14° East
Voir autres Aéroports à Rio Grande do Sul

Données opérationnelles

Accessible au public
Heure actuelle UTC:
Heure actuelle locale:
Météo
METAR: SBBG 301531Z AUTO 16014KT 9999 -RA FEW019 BKN028 18/16 Q1010 RERA
TAF: TAF SBBG 300900Z 3012/3024 33008KT 9999 SCT035 FEW045TCU TX23/3015Z TN20/3024Z BECMG 3018/3020 07005KT 7000 TSRA SCT030 FEW035CB RMK PED
Voir NOTAMs / SUP AIP / TFR affectant cet aéroport [VIEW]
Fréquences de communication: [VIEW]

Pistes:

Identifiant RWYQFULongueur (ft)Largeur (ft)SurfaceLDA (ft)
14125°3770148
32305°3770148
0646°492198
24226°492198

Coordonnées de l'aéroport

Adresse: Bage Brazil

Vue satellite de SBBG